LTBR/YEI METAR and TAF weather

Enter ICAO airport designator
Station Type Date Time Source
LTBR METAR 2021/07/28 20:50 UTC NOAA

LTBR 282050Z VRB02KT CAVOK 19/14 Q1015 NOSIG


Station Type Date Time Source
LTBR Decoded METAR 2021/07/28 20:50 UTC NOAA

Bursa / Yenisehir, Mil-Civ, Turkey (LTBR) 40-15-19N 029-33-45E
Jul 28, 2021 - 04:50 PM EDT / 2021.07.28 2050 UTC
Wind: Variable at 2 MPH (2 KT):0
Visibility: greater than 7 mile(s):0
Temperature: 66 F (19 C)
Dew Point: 57 F (14 C)
Relative Humidity: 72%
Pressure (altimeter): 29.97 in. Hg (1015 hPa)
ob: LTBR 282050Z VRB02KT CAVOK 19/14 Q1015 NOSIG
cycle: 21

Station Type Date Time Source
LTBR TAF 2021/07/28 18:03 UTC NOAA

TAF LTBR 281640Z 2818/2918 VRB02KT CAVOK
BECMG 2909/2912 36012KT
BECMG 2915/2918 VRB02KT

Example: see airport list